Time;durP1;ratioP1;P1;durP2;ratioP2;P2;SDS_P1;SDS_P2;PMS_P1;PMS_P2;Temp;Humidity;BMP_temperature;BMP_pressure;BME280_temperature;BME280_humidity;BME280_pressure;Samples;Min_cycle;Max_cycle;Signal;HPM_P1;HPM_P2
2024/01/11 00:02:17;;;;;;;;;;;-5.10;99.90;;;;;;5085340;27;20454;-61
2024/01/11 00:04:43;;;;;;;;;;;-5.10;99.90;;;;;;5103250;27;19935;-62
2024/01/11 00:07:09;;;;;;;;;;;-5.10;99.90;;;;;;5097712;27;19931;-60
2024/01/11 00:09:44;;;;;;;;;;;-5.10;99.90;;;;;;5084319;27;19927;-62
2024/01/11 00:12:10;;;;;;;;;;;-5.10;99.90;;;;;;5087949;27;20436;-61
2024/01/11 00:14:35;;;;;;;;;;;-5.20;99.90;;;;;;5087939;27;19928;-62
2024/01/11 00:17:02;;;;;;;;;;;-5.20;99.90;;;;;;5104507;27;19923;-61
2024/01/11 00:19:27;;;;;;;;;;;-5.20;99.90;;;;;;5102772;27;19952;-62
2024/01/11 00:21:53;;;;;;;;;;;-5.20;99.90;;;;;;5084326;27;19923;-62
2024/01/11 00:24:18;;;;;;;;;;;-5.20;99.90;;;;;;5095696;27;19927;-61
2024/01/11 00:26:44;;;;;;;;;;;-5.20;99.90;;;;;;5108570;27;19978;-62
2024/01/11 00:29:10;;;;;;;;;;;-5.20;99.90;;;;;;5081422;27;20061;-61
2024/01/11 00:31:37;;;;;;;;;;;-5.20;99.90;;;;;;5084385;27;20010;-62
2024/01/11 00:34:02;;;;;;;;;;;-5.20;99.90;;;;;;5103950;27;20411;-61
2024/01/11 00:36:28;;;;;;;;;;;-5.20;99.90;;;;;;5087474;27;19933;-61
2024/01/11 00:38:54;;;;;;;;;;;-5.20;99.90;;;;;;5075292;27;20564;-60
2024/01/11 00:41:20;;;;;;;;;;;-5.30;99.90;;;;;;5084681;27;20478;-62
2024/01/11 00:43:45;;;;;;;;;;;-5.30;99.90;;;;;;5109602;27;20374;-61
2024/01/11 00:46:11;;;;;;;;;;;-5.30;99.90;;;;;;5087881;27;19927;-62
2024/01/11 00:48:36;;;;;;;;;;;-5.30;99.90;;;;;;5066459;27;21416;-61
2024/01/11 00:51:03;;;;;;;;;;;-5.30;99.90;;;;;;5085395;27;19935;-62
2024/01/11 00:53:30;;;;;;;;;;;-5.30;99.90;;;;;;5083762;27;19927;-61
2024/01/11 00:55:57;;;;;;;;;;;-5.30;99.90;;;;;;5089973;27;19928;-60
2024/01/11 00:58:22;;;;;;;;;;;-5.30;99.90;;;;;;5087873;27;19977;-61
2024/01/11 01:00:49;;;;;;;;;;;-5.30;99.90;;;;;;5066294;27;20297;-61
2024/01/11 01:03:15;;;;;;;;;;;-5.20;99.90;;;;;;5099192;27;19935;-61
2024/01/11 01:05:41;;;;;;;;;;;-5.20;99.90;;;;;;5065226;27;20361;-61
2024/01/11 01:08:07;;;;;;;;;;;-5.20;99.90;;;;;;5100683;27;19933;-61
2024/01/11 01:10:33;;;;;;;;;;;-5.20;99.90;;;;;;5082104;27;19931;-62
2024/01/11 01:12:58;;;;;;;;;;;-5.20;99.90;;;;;;5101994;27;19928;-60
2024/01/11 01:15:24;;;;;;;;;;;-5.20;99.90;;;;;;5106382;27;19934;-61
2024/01/11 01:17:49;;;;;;;;;;;-5.20;99.90;;;;;;5105249;27;19931;-61
2024/01/11 01:20:15;;;;;;;;;;;-5.10;99.90;;;;;;5097019;27;19928;-60
2024/01/11 01:22:40;;;;;;;;;;;-5.10;99.90;;;;;;5085143;27;19927;-60
2024/01/11 01:25:06;;;;;;;;;;;-5.10;99.90;;;;;;5080154;27;19923;-62
2024/01/11 01:27:32;;;;;;;;;;;-5.10;99.90;;;;;;5081855;27;20667;-61
2024/01/11 01:29:57;;;;;;;;;;;-5.10;99.90;;;;;;5078004;27;19934;-61
2024/01/11 01:32:23;;;;;;;;;;;-5.10;99.90;;;;;;5091990;27;19923;-61
2024/01/11 01:34:49;;;;;;;;;;;-5.10;99.90;;;;;;5073746;27;19928;-61
2024/01/11 01:37:14;;;;;;;;;;;-5.10;99.90;;;;;;5074304;27;19928;-62
2024/01/11 01:39:40;;;;;;;;;;;-5.10;99.90;;;;;;5075967;28;19932;-60
2024/01/11 01:42:06;;;;;;;;;;;-5.10;99.90;;;;;;5066277;28;20579;-61
2024/01/11 01:44:32;;;;;;;;;;;-5.10;99.90;;;;;;5076228;28;21389;-62
2024/01/11 01:46:58;;;;;;;;;;;-5.10;99.90;;;;;;5076608;28;20275;-62
2024/01/11 01:49:24;;;;;;;;;;;-5.10;99.90;;;;;;5073774;28;19932;-61
2024/01/11 01:51:50;;;;;;;;;;;-5.10;99.90;;;;;;5068682;28;20443;-61
2024/01/11 01:54:16;;;;;;;;;;;-5.10;99.90;;;;;;5074309;28;19931;-61
2024/01/11 01:56:42;;;;;;;;;;;-5.10;99.90;;;;;;5072115;27;19963;-59
2024/01/11 01:59:08;;;;;;;;;;;-5.20;99.90;;;;;;5073836;28;19929;-61
2024/01/11 02:01:34;;;;;;;;;;;-5.10;99.90;;;;;;5072689;28;20295;-60
2024/01/11 02:03:59;;;;;;;;;;;-5.20;99.90;;;;;;5090601;27;19927;-61
2024/01/11 02:06:25;;;;;;;;;;;-5.20;99.90;;;;;;5068912;28;20610;-62
2024/01/11 02:08:54;;;;;;;;;;;-5.20;99.90;;;;;;5069658;28;19977;-62
2024/01/11 02:11:21;;;;;;;;;;;-5.20;99.90;;;;;;5071604;28;21170;-61
2024/01/11 02:13:46;;;;;;;;;;;-5.20;99.90;;;;;;5070543;28;19931;-62
2024/01/11 02:16:13;;;;;;;;;;;-5.20;99.90;;;;;;5051255;28;20382;-62
2024/01/11 02:18:38;;;;;;;;;;;-5.20;99.90;;;;;;5076046;28;19934;-61
2024/01/11 02:21:06;;;;;;;;;;;-5.30;99.90;;;;;;5068339;28;19924;-61
2024/01/11 02:23:32;;;;;;;;;;;-5.30;99.90;;;;;;5073921;28;19939;-61
2024/01/11 02:25:57;;;;;;;;;;;-5.30;99.90;;;;;;5085208;28;20093;-62
2024/01/11 02:28:23;;;;;;;;;;;-5.40;99.90;;;;;;5087160;28;20420;-62
2024/01/11 02:30:49;;;;;;;;;;;-5.40;99.90;;;;;;5092407;28;19939;-62
2024/01/11 02:33:16;;;;;;;;;;;-5.40;99.90;;;;;;5082359;28;20026;-62
2024/01/11 02:35:42;;;;;;;;;;;-5.40;99.90;;;;;;5087950;28;20888;-62
2024/01/11 02:38:08;;;;;;;;;;;-5.40;99.90;;;;;;5085612;28;19971;-61
2024/01/11 02:40:34;;;;;;;;;;;-5.40;99.90;;;;;;5086955;28;19981;-60
2024/01/11 02:43:07;;;;;;;;;;;-5.50;99.90;;;;;;5089477;28;19928;-62
2024/01/11 02:45:32;;;;;;;;;;;-5.50;99.90;;;;;;5084958;28;21240;-62
2024/01/11 02:47:58;;;;;;;;;;;-5.50;99.90;;;;;;5087323;28;19930;-62
2024/01/11 02:50:24;;;;;;;;;;;-5.50;99.90;;;;;;5076161;28;19927;-61
2024/01/11 02:52:49;;;;;;;;;;;-5.60;99.90;;;;;;5083854;28;20089;-62
2024/01/11 02:55:15;;;;;;;;;;;-5.50;99.90;;;;;;5083955;28;19924;-62
2024/01/11 02:57:40;;;;;;;;;;;-5.60;99.90;;;;;;5087093;28;19958;-62
2024/01/11 03:00:06;;;;;;;;;;;-5.60;99.90;;;;;;5078641;28;20002;-61
2024/01/11 03:02:32;;;;;;;;;;;-5.60;99.90;;;;;;5078042;28;20038;-61
2024/01/11 03:04:57;;;;;;;;;;;-5.60;99.90;;;;;;5079927;28;19931;-62
2024/01/11 03:07:23;;;;;;;;;;;-5.60;99.90;;;;;;5083996;28;19974;-61
2024/01/11 03:09:48;;;;;;;;;;;-5.70;99.90;;;;;;5081459;28;20028;-62
2024/01/11 03:12:14;;;;;;;;;;;-5.70;99.90;;;;;;5086713;28;19927;-61
2024/01/11 03:14:40;;;;;;;;;;;-5.70;99.90;;;;;;5083971;28;19935;-62
2024/01/11 03:17:05;;;;;;;;;;;-5.70;99.90;;;;;;5085451;28;20021;-61
2024/01/11 03:19:31;;;;;;;;;;;-5.70;99.90;;;;;;5071195;28;19928;-62
2024/01/11 03:21:56;;;;;;;;;;;-5.70;99.90;;;;;;5090176;28;20030;-62
2024/01/11 03:24:22;;;;;;;;;;;-5.70;99.90;;;;;;5086091;28;19925;-62
2024/01/11 03:26:48;;;;;;;;;;;-5.70;99.90;;;;;;5083317;28;19973;-62
2024/01/11 03:29:13;;;;;;;;;;;-5.60;99.90;;;;;;5085418;28;19928;-62
2024/01/11 03:31:41;;;;;;;;;;;-5.70;99.90;;;;;;5073329;28;21155;-62
2024/01/11 03:34:07;;;;;;;;;;;-5.60;99.90;;;;;;5085524;28;19924;-62
2024/01/11 03:36:33;;;;;;;;;;;-5.60;99.90;;;;;;5088295;28;19955;-62
2024/01/11 03:38:58;;;;;;;;;;;-5.60;99.90;;;;;;5085922;28;21547;-61
2024/01/11 03:41:24;;;;;;;;;;;-5.50;99.90;;;;;;5077249;28;19920;-62
2024/01/11 03:43:50;;;;;;;;;;;-5.50;99.90;;;;;;5080080;28;20371;-62
2024/01/11 03:46:15;;;;;;;;;;;-5.50;99.90;;;;;;5082544;28;19919;-61
2024/01/11 03:48:41;;;;;;;;;;;-5.50;99.90;;;;;;5079147;28;19974;-62
2024/01/11 03:51:07;;;;;;;;;;;-5.50;99.90;;;;;;5084471;28;20538;-61
2024/01/11 03:53:36;;;;;;;;;;;-5.50;99.90;;;;;;5071661;28;19965;-62
2024/01/11 03:56:02;;;;;;;;;;;-5.50;99.90;;;;;;5085021;28;19931;-62
2024/01/11 03:58:28;;;;;;;;;;;-5.50;99.90;;;;;;5079897;28;20286;-61
2024/01/11 04:00:54;;;;;;;;;;;-5.40;99.90;;;;;;5071059;28;19928;-61
2024/01/11 04:03:19;;;;;;;;;;;-5.40;99.90;;;;;;5083623;28;19927;-62
2024/01/11 04:05:45;;;;;;;;;;;-5.40;99.90;;;;;;5084336;28;19928;-61
2024/01/11 04:08:10;;;;;;;;;;;-5.40;99.90;;;;;;5083851;28;20015;-59
2024/01/11 04:10:36;;;;;;;;;;;-5.30;99.90;;;;;;5085054;28;19932;-61
2024/01/11 04:13:01;;;;;;;;;;;-5.30;99.90;;;;;;5084181;28;19930;-62
2024/01/11 04:15:27;;;;;;;;;;;-5.30;99.90;;;;;;5079607;28;19927;-60
2024/01/11 04:17:53;;;;;;;;;;;-5.20;99.90;;;;;;5083608;28;19935;-61
2024/01/11 04:20:18;;;;;;;;;;;-5.20;99.90;;;;;;5072303;28;19934;-62
2024/01/11 04:22:44;;;;;;;;;;;-5.20;99.90;;;;;;5087457;28;19924;-61
2024/01/11 04:25:10;;;;;;;;;;;-5.10;99.90;;;;;;5103328;27;20434;-61
2024/01/11 04:27:35;;;;;;;;;;;-5.00;99.90;;;;;;5071336;28;19939;-61
2024/01/11 04:30:01;;;;;;;;;;;-5.00;99.90;;;;;;5082851;28;19932;-61
2024/01/11 04:32:26;;;;;;;;;;;-5.00;99.90;;;;;;5089794;28;19928;-61
2024/01/11 04:34:52;;;;;;;;;;;-4.90;99.90;;;;;;5093104;28;20436;-61
2024/01/11 04:37:18;;;;;;;;;;;-4.90;99.90;;;;;;5092596;28;20010;-62
2024/01/11 04:39:44;;;;;;;;;;;-4.90;99.90;;;;;;5093961;27;19932;-61
2024/01/11 04:42:10;;;;;;;;;;;-4.90;99.90;;;;;;5082306;27;19970;-62
2024/01/11 04:44:35;;;;;;;;;;;-4.80;99.90;;;;;;5072517;27;19980;-62
2024/01/11 04:47:01;;;;;;;;;;;-4.80;99.90;;;;;;5079204;27;19970;-61
2024/01/11 04:49:26;;;;;;;;;;;-4.70;99.90;;;;;;5101349;27;19935;-61
2024/01/11 04:51:52;;;;;;;;;;;-4.70;99.90;;;;;;5078708;27;19932;-62
2024/01/11 04:54:17;;;;;;;;;;;-4.70;99.90;;;;;;5078286;27;19923;-61
2024/01/11 04:56:43;;;;;;;;;;;-4.60;99.90;;;;;;5065158;27;19928;-61
2024/01/11 04:59:08;;;;;;;;;;;-4.60;99.90;;;;;;5085100;27;19935;-62
2024/01/11 05:01:34;;;;;;;;;;;-4.50;99.90;;;;;;5082160;27;19927;-61
2024/01/11 05:04:00;;;;;;;;;;;-4.40;99.90;;;;;;5102827;27;19927;-62
2024/01/11 05:06:25;;;;;;;;;;;-4.40;99.90;;;;;;5082435;27;19931;-61
2024/01/11 05:08:52;;;;;;;;;;;-4.40;99.90;;;;;;5087461;27;20179;-61
2024/01/11 05:11:18;;;;;;;;;;;-4.30;99.90;;;;;;5086807;27;20425;-62
2024/01/11 05:13:47;;;;;;;;;;;-4.30;99.90;;;;;;5115463;27;20370;-61
2024/01/11 05:16:31;;;;;;;;;;;-4.20;99.90;;;;;;5084247;27;19924;-61
2024/01/11 05:18:57;;;;;;;;;;;-4.20;99.90;;;;;;5109586;27;20006;-61
2024/01/11 05:21:23;;;;;;;;;;;-4.20;99.90;;;;;;5077917;27;19923;-62
2024/01/11 05:23:49;;;;;;;;;;;-4.10;99.90;;;;;;5113388;27;20012;-62
2024/01/11 05:26:15;;;;;;;;;;;-4.10;99.90;;;;;;5106307;27;20520;-61
2024/01/11 05:28:40;;;;;;;;;;;-4.00;99.90;;;;;;5091734;27;20392;-61
2024/01/11 05:31:10;;;;;;;;;;;-3.70;99.90;;;;;;5086282;27;19935;-62
2024/01/11 05:33:36;;;;;;;;;;;-3.90;99.90;;;;;;5085251;27;20015;-61
2024/01/11 05:36:02;;;;;;;;;;;-3.90;99.90;;;;;;5077623;27;20442;-62
2024/01/11 05:38:28;;;;;;;;;;;-3.80;99.90;;;;;;5082650;27;19924;-62
2024/01/11 05:40:53;;;;;;;;;;;-3.80;99.90;;;;;;5101393;27;21218;-62
2024/01/11 05:43:19;;;;;;;;;;;-3.80;99.90;;;;;;5096933;27;19928;-62
2024/01/11 05:45:44;;;;;;;;;;;-3.80;99.90;;;;;;5060532;27;20012;-61
2024/01/11 05:48:11;;;;;;;;;;;-3.70;99.90;;;;;;5070760;27;20477;-62
2024/01/11 05:50:36;;;;;;;;;;;-3.70;99.90;;;;;;5077729;27;19928;-61
2024/01/11 05:53:02;;;;;;;;;;;-3.50;99.90;;;;;;5085740;27;19931;-61
2024/01/11 05:55:28;;;;;;;;;;;-3.60;99.90;;;;;;5081896;27;19927;-61
2024/01/11 05:57:54;;;;;;;;;;;-3.60;99.90;;;;;;5081060;27;20010;-62
2024/01/11 06:00:19;;;;;;;;;;;-3.60;99.90;;;;;;5078210;28;19967;-62
2024/01/11 06:02:45;;;;;;;;;;;-3.50;99.90;;;;;;5077975;27;20486;-61
2024/01/11 06:05:12;;;;;;;;;;;-3.50;99.90;;;;;;5090368;27;19974;-62
2024/01/11 06:07:38;;;;;;;;;;;-3.50;99.90;;;;;;5091749;27;19928;-62
2024/01/11 06:10:05;;;;;;;;;;;-3.40;99.90;;;;;;5075057;27;19942;-61
2024/01/11 06:12:31;;;;;;;;;;;-3.40;99.90;;;;;;5066882;27;19966;-62
2024/01/11 06:14:57;;;;;;;;;;;-3.30;99.90;;;;;;5078733;27;20491;-61
2024/01/11 06:17:23;;;;;;;;;;;-3.30;99.90;;;;;;5074641;28;19923;-61
2024/01/11 06:19:49;;;;;;;;;;;-3.30;99.90;;;;;;5075071;28;20343;-60
2024/01/11 06:22:15;;;;;;;;;;;-3.30;99.90;;;;;;5089308;28;19923;-62
2024/01/11 06:24:40;;;;;;;;;;;-3.20;99.90;;;;;;5081338;28;19930;-62
2024/01/11 06:27:06;;;;;;;;;;;-3.20;99.90;;;;;;5098792;27;19924;-61
2024/01/11 06:29:31;;;;;;;;;;;-3.10;99.90;;;;;;5074600;28;20045;-62
2024/01/11 06:31:57;;;;;;;;;;;-3.10;99.90;;;;;;5072455;28;19931;-60
2024/01/11 06:34:23;;;;;;;;;;;-3.10;99.90;;;;;;5079121;28;20305;-68
2024/01/11 06:36:48;;;;;;;;;;;-3.10;99.90;;;;;;5077729;28;19974;-67
2024/01/11 06:39:14;;;;;;;;;;;-3.00;99.90;;;;;;5088555;27;19935;-68
2024/01/11 06:41:40;;;;;;;;;;;-2.80;99.90;;;;;;5078671;28;20009;-66
2024/01/11 06:44:05;;;;;;;;;;;-3.00;99.90;;;;;;5080954;28;20526;-67
2024/01/11 06:46:31;;;;;;;;;;;-2.90;99.90;;;;;;5085270;27;19934;-67
2024/01/11 06:48:56;;;;;;;;;;;-2.90;99.90;;;;;;5092917;27;20018;-67
2024/01/11 06:51:23;;;;;;;;;;;-2.90;99.90;;;;;;5091617;27;19950;-66
2024/01/11 06:53:49;;;;;;;;;;;-2.80;99.90;;;;;;5083424;27;19923;-67
2024/01/11 06:56:19;;;;;;;;;;;-2.80;99.90;;;;;;5064270;27;20366;-66
2024/01/11 06:58:44;;;;;;;;;;;-2.80;99.90;;;;;;5069835;27;20313;-66
2024/01/11 07:01:10;;;;;;;;;;;-2.70;99.90;;;;;;5064097;27;19923;-66
2024/01/11 07:03:36;;;;;;;;;;;-2.70;99.90;;;;;;5053425;27;20468;-67
2024/01/11 07:06:03;;;;;;;;;;;-2.70;99.90;;;;;;5079019;27;19923;-67
2024/01/11 07:08:28;;;;;;;;;;;-2.80;99.90;;;;;;5071336;27;20040;-66
2024/01/11 07:10:54;;;;;;;;;;;-2.60;99.90;;;;;;5087727;27;19927;-68
2024/01/11 07:13:19;;;;;;;;;;;-2.60;99.90;;;;;;5067027;27;19924;-68
2024/01/11 07:15:45;;;;;;;;;;;-2.60;99.90;;;;;;5083840;27;19935;-67
2024/01/11 07:18:14;;;;;;;;;;;-2.50;99.90;;;;;;5081913;27;19965;-66
2024/01/11 07:20:40;;;;;;;;;;;-2.50;99.90;;;;;;5082766;27;19924;-67
2024/01/11 07:23:05;;;;;;;;;;;-2.50;99.90;;;;;;5086630;27;20000;-68
2024/01/11 07:25:32;;;;;;;;;;;-2.50;99.90;;;;;;5091607;27;19923;-67
2024/01/11 07:27:57;;;;;;;;;;;-2.40;99.90;;;;;;5094635;27;21570;-67
2024/01/11 07:30:23;;;;;;;;;;;-2.40;99.90;;;;;;5070864;27;19934;-66
2024/01/11 07:32:51;;;;;;;;;;;-2.40;99.90;;;;;;5090873;27;19928;-67
2024/01/11 07:35:17;;;;;;;;;;;-2.40;99.90;;;;;;5083938;27;19926;-67
2024/01/11 07:37:42;;;;;;;;;;;-2.40;99.90;;;;;;5093198;27;19924;-68
2024/01/11 07:40:13;;;;;;;;;;;-2.30;99.90;;;;;;5085479;27;19934;-67
2024/01/11 07:42:39;;;;;;;;;;;-2.30;99.90;;;;;;5091850;27;19928;-68
2024/01/11 07:45:05;;;;;;;;;;;-2.30;99.90;;;;;;5097585;27;19966;-68
2024/01/11 07:47:31;;;;;;;;;;;-2.30;99.90;;;;;;5098623;27;19963;-67
2024/01/11 07:49:56;;;;;;;;;;;-2.20;99.90;;;;;;5069580;27;20415;-68
2024/01/11 07:52:22;;;;;;;;;;;-2.20;99.90;;;;;;5073141;27;20203;-68
2024/01/11 07:54:48;;;;;;;;;;;-2.20;99.90;;;;;;5070188;27;20022;-68
2024/01/11 07:57:13;;;;;;;;;;;-2.20;99.90;;;;;;5089355;27;19923;-67
2024/01/11 07:59:39;;;;;;;;;;;-2.20;99.90;;;;;;5087318;27;19930;-67
2024/01/11 08:02:05;;;;;;;;;;;-2.20;99.90;;;;;;5086753;27;19923;-67
2024/01/11 08:04:31;;;;;;;;;;;-2.10;99.90;;;;;;5086418;27;19963;-67
2024/01/11 08:06:59;;;;;;;;;;;-2.10;99.90;;;;;;5077418;27;19930;-68
2024/01/11 08:09:28;;;;;;;;;;;-2.10;99.90;;;;;;5089739;27;19938;-66
2024/01/11 08:11:54;;;;;;;;;;;-2.00;99.90;;;;;;5095690;27;19924;-67
2024/01/11 08:14:20;;;;;;;;;;;-2.00;99.90;;;;;;5086595;27;19992;-67
2024/01/11 08:16:45;;;;;;;;;;;-2.00;99.90;;;;;;5070959;27;19924;-68
2024/01/11 08:19:13;;;;;;;;;;;-2.00;99.90;;;;;;5087113;27;19931;-66
2024/01/11 08:21:39;;;;;;;;;;;-1.90;99.90;;;;;;5089728;27;19977;-67
2024/01/11 08:24:05;;;;;;;;;;;-1.90;99.90;;;;;;5095000;27;19927;-66
2024/01/11 08:26:30;;;;;;;;;;;-1.90;99.90;;;;;;5071200;27;19971;-66
2024/01/11 08:28:56;;;;;;;;;;;-1.90;99.90;;;;;;5089616;27;19931;-67
2024/01/11 08:31:22;;;;;;;;;;;-1.80;99.90;;;;;;5084622;27;19930;-67
2024/01/11 08:33:48;;;;;;;;;;;-1.80;99.90;;;;;;5092027;27;19956;-67
2024/01/11 08:36:13;;;;;;;;;;;-1.70;99.90;;;;;;5092967;27;19985;-67
2024/01/11 08:38:40;;;;;;;;;;;-1.70;99.90;;;;;;5090173;27;19969;-68
2024/01/11 08:41:06;;;;;;;;;;;-1.60;99.90;;;;;;5091248;28;20749;-67
2024/01/11 08:43:32;;;;;;;;;;;-1.60;99.90;;;;;;5065037;28;20829;-67
2024/01/11 08:45:58;;;;;;;;;;;-1.60;99.90;;;;;;5078807;28;19957;-67
2024/01/11 08:48:23;;;;;;;;;;;-1.60;99.90;;;;;;5088606;28;19931;-66
2024/01/11 08:50:49;;;;;;;;;;;-1.50;99.90;;;;;;5083111;28;19962;-67
2024/01/11 08:53:15;;;;;;;;;;;-1.50;99.90;;;;;;5089262;28;19923;-67
2024/01/11 08:55:41;;;;;;;;;;;-1.40;99.90;;;;;;5086398;28;19966;-67
2024/01/11 08:58:07;;;;;;;;;;;-1.40;99.90;;;;;;5088781;28;20009;-67
2024/01/11 09:00:33;;;;;;;;;;;-1.30;99.90;;;;;;5083446;28;20471;-67
2024/01/11 09:02:58;;;;;;;;;;;-1.30;99.90;;;;;;5113796;28;19927;-68
2024/01/11 09:05:25;;;;;;;;;;;-1.30;99.90;;;;;;5073932;28;19935;-66
2024/01/11 09:07:50;;;;;;;;;;;-1.20;99.90;;;;;;5089052;27;20385;-66
2024/01/11 09:10:16;;;;;;;;;;;-1.20;99.90;;;;;;5087469;28;19927;-67
2024/01/11 09:12:41;;;;;;;;;;;-1.10;99.90;;;;;;5087193;28;20341;-66
2024/01/11 09:15:07;;;;;;;;;;;-1.10;99.90;;;;;;5112497;28;20425;-67
2024/01/11 09:17:33;;;;;;;;;;;-1.00;99.90;;;;;;5062999;28;19928;-68
2024/01/11 09:19:58;;;;;;;;;;;-1.00;99.90;;;;;;5086320;28;19934;-65
2024/01/11 09:22:24;;;;;;;;;;;-1.00;99.90;;;;;;5069880;28;19924;-64
2024/01/11 09:24:50;;;;;;;;;;;-0.90;99.90;;;;;;5086663;28;19935;-65
2024/01/11 09:27:15;;;;;;;;;;;-0.90;99.90;;;;;;5092336;28;19941;-64
2024/01/11 09:29:44;;;;;;;;;;;-0.90;99.90;;;;;;5079310;28;20837;-64
2024/01/11 09:32:10;;;;;;;;;;;-0.80;99.90;;;;;;5094402;28;19923;-64
2024/01/11 09:34:36;;;;;;;;;;;-0.80;99.90;;;;;;5090811;28;19934;-64
2024/01/11 09:37:01;;;;;;;;;;;-0.70;99.90;;;;;;5077414;28;20516;-63
2024/01/11 09:39:27;;;;;;;;;;;-0.70;99.90;;;;;;5007571;27;1852300;-64
2024/01/11 09:41:58;;;;;;;;;;;-0.60;99.90;;;;;;5068260;27;19946;-65
2024/01/11 09:44:24;;;;;;;;;;;-0.60;99.90;;;;;;5082609;27;19930;-65
2024/01/11 09:46:49;;;;;;;;;;;-0.60;99.90;;;;;;5089029;27;19927;-64
2024/01/11 09:49:16;;;;;;;;;;;-0.50;99.90;;;;;;5079698;27;20433;-64
2024/01/11 09:51:43;;;;;;;;;;;-0.50;99.90;;;;;;5084138;27;19962;-65
2024/01/11 09:54:10;;;;;;;;;;;-0.40;99.90;;;;;;5082981;27;19924;-64
2024/01/11 09:56:36;;;;;;;;;;;-0.40;99.90;;;;;;5080721;27;20095;-65
2024/01/11 09:59:05;;;;;;;;;;;-0.30;99.90;;;;;;5086826;27;20708;-63
2024/01/11 10:01:31;;;;;;;;;;;-0.30;99.90;;;;;;5071199;27;19966;-65
2024/01/11 10:03:57;;;;;;;;;;;-0.30;99.90;;;;;;5074119;27;20096;-65
2024/01/11 10:06:23;;;;;;;;;;;-0.20;99.90;;;;;;5069082;27;19934;-64
2024/01/11 10:08:49;;;;;;;;;;;-0.20;99.90;;;;;;5074717;27;19928;-64
2024/01/11 10:11:15;;;;;;;;;;;-0.20;99.90;;;;;;5093612;27;19930;-64
2024/01/11 10:13:40;;;;;;;;;;;-0.10;99.90;;;;;;5079063;27;20591;-64
2024/01/11 10:16:10;;;;;;;;;;;-0.10;99.90;;;;;;5090066;27;19935;-64
2024/01/11 10:18:36;;;;;;;;;;;-0.10;99.90;;;;;;5081637;27;19959;-64
2024/01/11 10:21:03;;;;;;;;;;;0.10;99.90;;;;;;5083190;27;20433;-65
2024/01/11 10:23:28;;;;;;;;;;;0.00;99.90;;;;;;5090812;27;19927;-64
2024/01/11 10:25:57;;;;;;;;;;;0.00;99.90;;;;;;5067507;28;19938;-63
2024/01/11 10:28:25;;;;;;;;;;;0.00;99.90;;;;;;5090766;28;20128;-63
2024/01/11 10:30:53;;;;;;;;;;;0.10;99.90;;;;;;5087365;28;19927;-65
2024/01/11 10:33:22;;;;;;;;;;;0.10;99.90;;;;;;5089534;28;19938;-63
2024/01/11 10:35:49;;;;;;;;;;;0.10;99.90;;;;;;5088694;28;19923;-65
2024/01/11 10:38:15;;;;;;;;;;;0.10;99.90;;;;;;5097200;28;21226;-64
2024/01/11 10:40:41;;;;;;;;;;;0.10;99.90;;;;;;5091767;28;19935;-64
2024/01/11 10:43:11;;;;;;;;;;;0.20;99.90;;;;;;5097142;28;19923;-64
2024/01/11 10:45:41;;;;;;;;;;;0.10;99.90;;;;;;5088363;28;19973;-65
2024/01/11 10:48:10;;;;;;;;;;;0.20;99.90;;;;;;5089534;28;19931;-64
2024/01/11 10:50:39;;;;;;;;;;;0.20;99.90;;;;;;5087482;28;20351;-65
2024/01/11 10:53:17;;;;;;;;;;;0.20;99.90;;;;;;5075481;28;19920;-65
2024/01/11 10:55:43;;;;;;;;;;;0.20;99.90;;;;;;5092363;28;19930;-64
2024/01/11 10:58:10;;;;;;;;;;;0.30;99.90;;;;;;5080535;28;20404;-64
2024/01/11 11:00:36;;;;;;;;;;;0.30;99.90;;;;;;5093719;28;20078;-65
2024/01/11 11:03:02;;;;;;;;;;;0.30;99.90;;;;;;5090792;28;20281;-64
2024/01/11 11:05:30;;;;;;;;;;;0.30;99.90;;;;;;5093955;28;19928;-64
2024/01/11 11:07:55;;;;;;;;;;;0.40;99.90;;;;;;5092977;28;19966;-63
2024/01/11 11:10:22;;;;;;;;;;;0.40;99.90;;;;;;5091930;28;19932;-64
2024/01/11 11:12:48;;;;;;;;;;;0.40;99.90;;;;;;5089016;28;19923;-64
2024/01/11 11:15:14;;;;;;;;;;;0.40;99.90;;;;;;5079628;28;20024;-64
2024/01/11 11:17:40;;;;;;;;;;;0.50;99.90;;;;;;5088027;28;20005;-64
2024/01/11 11:20:08;;;;;;;;;;;0.50;99.90;;;;;;5085301;28;19935;-64
2024/01/11 11:22:34;;;;;;;;;;;0.50;99.90;;;;;;5089417;28;19931;-65
2024/01/11 11:25:05;;;;;;;;;;;0.50;99.90;;;;;;5088056;28;19924;-63
2024/01/11 11:27:31;;;;;;;;;;;0.60;99.90;;;;;;5085436;28;19923;-65
2024/01/11 11:29:56;;;;;;;;;;;0.60;99.90;;;;;;5086748;28;19957;-64
2024/01/11 11:32:35;;;;;;;;;;;0.60;99.90;;;;;;5076029;27;19945;-64
2024/01/11 11:35:01;;;;;;;;;;;0.60;99.90;;;;;;5073866;27;19927;-64
2024/01/11 11:37:29;;;;;;;;;;;0.70;99.90;;;;;;5097581;27;19924;-64
2024/01/11 11:39:54;;;;;;;;;;;0.70;99.90;;;;;;5077423;27;19928;-63
2024/01/11 11:42:22;;;;;;;;;;;0.70;99.90;;;;;;5073120;27;19930;-65
2024/01/11 11:44:49;;;;;;;;;;;0.80;99.90;;;;;;5075869;27;20286;-64
2024/01/11 11:47:22;;;;;;;;;;;0.80;99.90;;;;;;5096673;27;19931;-64
2024/01/11 11:50:10;;;;;;;;;;;0.80;99.90;;;;;;5089936;27;19977;-65
2024/01/11 11:52:40;;;;;;;;;;;0.80;99.90;;;;;;5081243;27;19928;-63
2024/01/11 11:55:06;;;;;;;;;;;0.90;99.90;;;;;;5096504;27;20370;-64
2024/01/11 11:57:33;;;;;;;;;;;0.80;99.90;;;;;;5098637;27;20030;-63
2024/01/11 11:59:58;;;;;;;;;;;0.90;99.90;;;;;;5083413;27;20302;-64
2024/01/11 12:02:25;;;;;;;;;;;0.90;99.90;;;;;;5074179;27;19923;-64
2024/01/11 12:04:50;;;;;;;;;;;0.90;99.90;;;;;;5076650;27;19981;-64
2024/01/11 12:07:16;;;;;;;;;;;0.90;99.90;;;;;;5101597;27;20014;-63
2024/01/11 12:09:42;;;;;;;;;;;0.90;99.90;;;;;;5087617;27;20022;-64
2024/01/11 12:12:08;;;;;;;;;;;0.90;99.90;;;;;;5076653;27;19930;-64
2024/01/11 12:14:34;;;;;;;;;;;1.00;99.90;;;;;;5088184;27;19962;-65
2024/01/11 12:16:59;;;;;;;;;;;1.00;99.90;;;;;;5094444;27;19928;-65
2024/01/11 12:19:25;;;;;;;;;;;1.00;99.90;;;;;;5109305;27;20442;-63
2024/01/11 12:21:51;;;;;;;;;;;1.00;99.90;;;;;;5070391;27;19923;-64
2024/01/11 12:24:16;;;;;;;;;;;1.20;99.90;;;;;;5085673;27;19982;-63
2024/01/11 12:26:42;;;;;;;;;;;1.00;99.90;;;;;;5088573;27;19954;-64
2024/01/11 12:29:09;;;;;;;;;;;1.00;99.90;;;;;;5109982;27;19928;-64
2024/01/11 12:31:35;;;;;;;;;;;1.10;99.90;;;;;;5076068;27;20059;-64
2024/01/11 12:34:01;;;;;;;;;;;1.10;99.90;;;;;;5078479;27;19969;-64
2024/01/11 12:36:27;;;;;;;;;;;1.20;99.90;;;;;;5073715;27;19923;-64
2024/01/11 12:38:53;;;;;;;;;;;1.10;99.90;;;;;;5079797;27;19919;-64
2024/01/11 12:41:19;;;;;;;;;;;1.10;99.90;;;;;;5062802;27;19932;-65
2024/01/11 12:43:45;;;;;;;;;;;1.10;99.90;;;;;;5082627;27;21795;-64
2024/01/11 12:46:10;;;;;;;;;;;1.10;99.90;;;;;;5071856;27;19928;-64
2024/01/11 12:48:36;;;;;;;;;;;1.10;99.90;;;;;;5054027;27;20426;-64
2024/01/11 12:51:02;;;;;;;;;;;1.20;99.90;;;;;;5073284;27;20419;-65
2024/01/11 12:53:29;;;;;;;;;;;1.20;99.90;;;;;;5096123;27;19923;-63
2024/01/11 12:56:08;;;;;;;;;;;1.20;99.90;;;;;;5084345;27;20358;-64
2024/01/11 12:58:33;;;;;;;;;;;1.20;99.90;;;;;;5081986;27;20485;-64
2024/01/11 13:00:59;;;;;;;;;;;1.20;99.90;;;;;;5082798;27;19930;-64
2024/01/11 13:03:27;;;;;;;;;;;1.20;99.90;;;;;;5080678;27;19934;-64
2024/01/11 13:05:53;;;;;;;;;;;1.20;99.90;;;;;;5087139;27;22546;-64
2024/01/11 13:08:18;;;;;;;;;;;1.20;99.90;;;;;;5083664;27;19934;-65
2024/01/11 13:10:44;;;;;;;;;;;1.20;99.90;;;;;;5076769;27;19923;-64
2024/01/11 13:13:09;;;;;;;;;;;1.20;99.90;;;;;;5078875;27;19950;-63
2024/01/11 13:15:36;;;;;;;;;;;1.20;99.90;;;;;;5057912;27;20025;-65
2024/01/11 13:18:01;;;;;;;;;;;1.30;99.90;;;;;;5058545;27;20040;-64
2024/01/11 13:20:28;;;;;;;;;;;1.20;99.90;;;;;;5074130;27;19923;-65
2024/01/11 13:23:13;;;;;;;;;;;1.20;99.90;;;;;;5083373;27;19927;-65
2024/01/11 13:25:40;;;;;;;;;;;1.30;99.90;;;;;;5076770;27;19927;-64
2024/01/11 13:28:06;;;;;;;;;;;1.30;99.90;;;;;;5092855;27;19923;-65
2024/01/11 13:30:32;;;;;;;;;;;1.30;99.90;;;;;;5078137;27;19927;-64
2024/01/11 13:32:58;;;;;;;;;;;1.30;99.90;;;;;;5069260;27;19931;-65
2024/01/11 13:35:24;;;;;;;;;;;1.30;99.90;;;;;;5086116;27;21511;-64
2024/01/11 13:37:49;;;;;;;;;;;1.30;99.90;;;;;;5076324;27;20631;-63
2024/01/11 13:40:15;;;;;;;;;;;1.30;99.90;;;;;;5081113;27;19977;-64
2024/01/11 13:42:40;;;;;;;;;;;1.30;99.90;;;;;;5075111;27;20731;-65
2024/01/11 13:45:09;;;;;;;;;;;1.40;99.90;;;;;;5069784;27;19935;-64
2024/01/11 13:47:35;;;;;;;;;;;1.40;99.90;;;;;;5078379;27;19923;-63
2024/01/11 13:50:01;;;;;;;;;;;1.40;99.90;;;;;;5076854;27;20477;-65
2024/01/11 13:52:26;;;;;;;;;;;1.40;99.90;;;;;;5076558;27;20040;-65
2024/01/11 13:54:52;;;;;;;;;;;1.40;99.90;;;;;;5074120;27;20062;-64
2024/01/11 13:57:17;;;;;;;;;;;1.40;99.90;;;;;;5069698;27;20000;-64
2024/01/11 13:59:43;;;;;;;;;;;1.40;99.90;;;;;;5078870;27;19974;-65
2024/01/11 14:02:08;;;;;;;;;;;1.40;99.90;;;;;;5056571;27;19934;-65
2024/01/11 14:04:34;;;;;;;;;;;1.40;99.90;;;;;;5044205;27;19930;-65
2024/01/11 14:07:00;;;;;;;;;;;1.50;99.90;;;;;;5068136;27;19923;-64
2024/01/11 14:09:26;;;;;;;;;;;1.50;99.90;;;;;;5079783;27;20354;-65
2024/01/11 14:11:51;;;;;;;;;;;1.50;99.90;;;;;;5062270;27;19934;-65
2024/01/11 14:14:18;;;;;;;;;;;1.50;99.90;;;;;;5072573;28;19928;-64
2024/01/11 14:16:45;;;;;;;;;;;1.50;99.90;;;;;;5080656;28;19927;-64